Time;durP1;ratioP1;P1;durP2;ratioP2;P2;SDS_P1;SDS_P2;PMS_P1;PMS_P2;Temp;Humidity;BMP_temperature;BMP_pressure;BME280_temperature;BME280_humidity;BME280_pressure;Samples;Min_cycle;Max_cycle;Signal;HPM_P1;HPM_P2
2021/08/05 00:00:28;;;;;;;13.20;5.10;;;;;;;13.36;100.00;101209.38;4991852;28;20142;-82
2021/08/05 00:02:54;;;;;;;9.02;4.43;;;;;;;13.37;100.00;101207.56;4986296;28;20030;-80
2021/08/05 00:05:19;;;;;;;14.70;5.07;;;;;;;13.38;100.00;101212.69;5035435;28;20040;-83
2021/08/05 00:07:45;;;;;;;13.52;4.88;;;;;;;13.39;100.00;101208.25;4984977;28;20041;-80
2021/08/05 00:10:11;;;;;;;10.00;4.57;;;;;;;13.35;100.00;101194.53;4996521;28;20042;-81
2021/08/05 00:12:37;;;;;;;20.38;5.07;;;;;;;13.33;100.00;101201.78;4987939;28;20042;-83
2021/08/05 00:15:03;;;;;;;6.63;4.20;;;;;;;13.35;100.00;101205.09;5024782;28;20113;-83
2021/08/05 00:17:29;;;;;;;4.78;3.65;;;;;;;13.36;100.00;101204.13;5004089;28;20044;-84
2021/08/05 00:19:54;;;;;;;8.23;3.55;;;;;;;13.34;100.00;101197.34;4987778;28;20407;-84
2021/08/05 00:22:20;;;;;;;5.65;3.60;;;;;;;13.35;100.00;101204.25;4991332;28;20049;-85
2021/08/05 00:24:45;;;;;;;8.45;3.42;;;;;;;13.42;100.00;101195.59;5007015;28;20037;-83
2021/08/05 00:27:11;;;;;;;5.13;3.40;;;;;;;13.42;100.00;101190.31;4994474;28;20042;-82
2021/08/05 00:29:37;;;;;;;7.75;3.00;;;;;;;13.45;100.00;101197.13;4988084;28;20044;-84
2021/08/05 00:32:02;;;;;;;5.93;3.40;;;;;;;13.44;100.00;101183.09;4984460;28;20118;-83
2021/08/05 00:34:28;;;;;;;7.07;3.10;;;;;;;13.51;100.00;101198.31;4989857;28;20025;-82
2021/08/05 00:36:53;;;;;;;6.63;3.45;;;;;;;13.47;100.00;101187.25;5003836;28;20480;-82
2021/08/05 00:39:19;;;;;;;10.30;3.53;;;;;;;13.39;100.00;101180.09;4986879;28;20038;-83
2021/08/05 00:41:45;;;;;;;8.93;3.00;;;;;;;13.43;100.00;101180.63;5027684;28;20484;-82
2021/08/05 00:44:10;;;;;;;3.83;3.35;;;;;;;13.40;100.00;101170.38;4996797;28;20392;-82
2021/08/05 00:46:36;;;;;;;5.88;3.20;;;;;;;13.45;100.00;101178.66;4990169;28;20102;-82
2021/08/05 00:49:02;;;;;;;7.70;3.35;;;;;;;13.40;100.00;101180.94;4995130;28;20026;-81
2021/08/05 00:51:28;;;;;;;8.48;3.58;;;;;;;13.44;100.00;101179.63;4984759;28;20038;-83
2021/08/05 00:53:54;;;;;;;7.85;3.75;;;;;;;13.49;100.00;101181.81;5011270;28;20037;-85
2021/08/05 00:56:20;;;;;;;10.50;4.05;;;;;;;13.44;100.00;101183.09;4991106;28;20033;-84
2021/08/05 00:58:46;;;;;;;6.50;3.20;;;;;;;13.37;100.00;101161.00;4995887;28;20411;-82
2021/08/05 01:01:22;;;;;;;7.13;3.38;;;;;;;13.40;100.00;101173.84;4992916;28;20048;-84
2021/08/05 01:03:52;;;;;;;5.50;3.10;;;;;;;13.40;100.00;101173.84;5001012;28;20097;-84
2021/08/05 01:06:44;;;;;;;12.70;3.42;;;;;;;13.34;100.00;101166.56;4984666;28;20105;-83
2021/08/05 01:09:19;;;;;;;7.25;3.13;;;;;;;13.45;100.00;101170.75;4983850;28;20037;-81
2021/08/05 01:12:00;;;;;;;10.05;3.53;;;;;;;13.38;100.00;101169.72;4980468;28;20526;-82
2021/08/05 01:14:28;;;;;;;11.32;3.28;;;;;;;13.38;100.00;101167.91;4976768;28;20488;-82
2021/08/05 01:16:54;;;;;;;8.77;3.20;;;;;;;13.35;100.00;101168.19;5001498;28;20034;-81
2021/08/05 01:19:31;;;;;;;10.45;3.30;;;;;;;13.39;100.00;101174.00;4999844;28;20068;-82
2021/08/05 01:22:06;;;;;;;6.82;3.30;;;;;;;13.36;100.00;101167.22;4998040;28;20041;-81
2021/08/05 01:24:36;;;;;;;8.95;3.58;;;;;;;13.33;100.00;101164.06;5016152;28;20496;-82
2021/08/05 01:27:03;;;;;;;10.23;3.58;;;;;;;13.32;100.00;101165.06;5002581;28;20064;-81
2021/08/05 01:29:33;;;;;;;9.73;3.63;;;;;;;13.32;100.00;101167.72;5000705;28;20411;-80
2021/08/05 01:32:06;;;;;;;5.72;3.25;;;;;;;13.25;100.00;101151.66;4986979;28;20063;-81
2021/08/05 01:34:32;;;;;;;8.57;3.25;;;;;;;13.30;100.00;101159.06;5011888;28;20029;-79
2021/08/05 01:36:59;;;;;;;4.95;3.50;;;;;;;13.23;100.00;101150.97;5012842;28;20164;-79
2021/08/05 01:39:27;;;;;;;10.15;3.28;;;;;;;13.27;100.00;101164.66;4996314;28;20574;-80
2021/08/05 01:41:53;;;;;;;7.43;3.15;;;;;;;13.21;100.00;101148.50;5011283;28;20033;-80
2021/08/05 01:44:19;;;;;;;4.15;3.10;;;;;;;13.31;100.00;101161.59;5016284;28;20041;-80
2021/08/05 01:46:45;;;;;;;7.47;3.28;;;;;;;13.27;100.00;101154.94;4979788;28;20137;-81
2021/08/05 01:49:13;;;;;;;5.63;3.42;;;;;;;13.28;100.00;101151.34;4994646;28;20049;-81
2021/08/05 01:51:39;;;;;;;9.68;4.35;;;;;;;13.25;100.00;101146.38;5012353;28;20037;-82
2021/08/05 01:54:06;;;;;;;8.15;3.80;;;;;;;13.25;100.00;101149.00;4980884;28;20053;-81
2021/08/05 01:56:31;;;;;;;8.63;3.92;;;;;;;13.17;100.00;101147.16;4979388;28;20527;-82
2021/08/05 01:58:59;;;;;;;8.10;4.10;;;;;;;13.12;100.00;101130.16;5004053;28;20045;-81
2021/08/05 02:01:25;;;;;;;6.55;3.55;;;;;;;13.10;100.00;101130.31;4995345;28;20496;-80
2021/08/05 02:04:03;;;;;;;5.38;3.90;;;;;;;13.20;100.00;101148.63;5011921;28;20045;-80
2021/08/05 02:06:35;;;;;;;6.85;4.15;;;;;;;13.18;100.00;101156.69;4980443;28;20046;-81
2021/08/05 02:09:21;;;;;;;7.13;4.25;;;;;;;13.09;100.00;101147.09;5000013;28;20483;-80
2021/08/05 02:11:49;;;;;;;4.50;3.78;;;;;;;13.13;100.00;101155.50;4995944;28;20042;-80
2021/08/05 02:14:19;;;;;;;11.52;4.32;;;;;;;13.13;100.00;101147.59;4996956;28;20030;-80
2021/08/05 02:16:45;;;;;;;5.13;3.50;;;;;;;13.02;100.00;101138.16;4987920;28;20602;-81
2021/08/05 02:19:14;;;;;;;4.90;3.60;;;;;;;13.07;100.00;101149.03;5024738;28;20048;-81
2021/08/05 02:21:41;;;;;;;5.63;3.25;;;;;;;13.09;100.00;101155.00;4979865;28;20092;-81
2021/08/05 02:24:07;;;;;;;4.20;3.35;;;;;;;13.07;100.00;101142.94;4978842;28;20042;-81
2021/08/05 02:26:34;;;;;;;7.68;3.38;;;;;;;13.08;100.00;101149.88;4993401;28;20093;-79
2021/08/05 02:29:01;;;;;;;6.75;3.42;;;;;;;13.05;100.00;101146.56;4996443;28;20029;-81
2021/08/05 02:31:27;;;;;;;3.60;3.03;;;;;;;13.09;100.00;101146.25;4996449;28;20111;-80
2021/08/05 02:33:56;;;;;;;7.88;3.45;;;;;;;13.12;100.00;101148.59;4996138;28;20385;-81
2021/08/05 02:36:22;;;;;;;6.75;3.80;;;;;;;13.07;100.00;101146.41;5011592;28;20034;-81
2021/08/05 02:38:48;;;;;;;6.10;3.33;;;;;;;13.04;100.00;101137.00;5015354;28;20041;-81
2021/08/05 02:41:15;;;;;;;4.53;3.08;;;;;;;13.07;100.00;101143.75;5012852;28;20112;-80
2021/08/05 02:43:42;;;;;;;5.38;3.72;;;;;;;13.01;100.00;101147.84;5015779;28;20093;-80
2021/08/05 02:46:07;;;;;;;4.38;3.47;;;;;;;12.89;100.00;101129.81;5000327;28;20029;-81
2021/08/05 02:48:35;;;;;;;6.05;3.90;;;;;;;12.98;100.00;101127.09;4983399;28;20116;-81
2021/08/05 02:51:01;;;;;;;7.95;3.75;;;;;;;12.84;100.00;101117.91;5000177;28;20045;-81
2021/08/05 02:53:28;;;;;;;7.25;4.13;;;;;;;12.94;100.00;101128.38;5017043;28;20064;-79
2021/08/05 02:55:54;;;;;;;10.35;3.85;;;;;;;12.90;100.00;101127.00;5018205;28;20042;-81
2021/08/05 02:58:20;;;;;;;6.10;3.60;;;;;;;12.96;100.00;101125.56;5001119;28;20514;-81
2021/08/05 03:00:45;;;;;;;6.63;3.85;;;;;;;12.95;100.00;101129.19;4980426;28;20560;-79
2021/08/05 03:03:12;;;;;;;10.90;3.88;;;;;;;12.93;100.00;101120.63;5016147;28;20077;-79
2021/08/05 03:05:39;;;;;;;6.20;3.40;;;;;;;12.99;100.00;101126.09;5002986;28;20034;-81
2021/08/05 03:08:05;;;;;;;6.53;3.22;;;;;;;12.97;100.00;101117.53;5017398;28;20025;-81
2021/08/05 03:10:31;;;;;;;3.55;2.95;;;;;;;13.01;100.00;101121.50;5020186;28;20018;-80
2021/08/05 03:12:56;;;;;;;5.45;3.40;;;;;;;12.99;100.00;101114.75;5021184;28;20090;-80
2021/08/05 03:15:22;;;;;;;5.47;3.58;;;;;;;12.99;100.00;101120.84;4998954;28;20130;-81
2021/08/05 03:17:48;;;;;;;5.07;3.38;;;;;;;12.96;100.00;101112.41;4998670;28;20042;-79
2021/08/05 03:20:16;;;;;;;4.80;3.30;;;;;;;12.99;100.00;101112.13;5015223;28;20094;-81
2021/08/05 03:22:45;;;;;;;4.57;3.42;;;;;;;12.95;100.00;101108.97;5000358;28;20034;-83
2021/08/05 03:25:11;;;;;;;5.60;3.28;;;;;;;12.95;100.00;101106.31;5016217;28;20496;-81
2021/08/05 03:27:39;;;;;;;4.07;2.80;;;;;;;12.96;100.00;101102.72;4997923;28;20052;-81
2021/08/05 03:30:06;;;;;;;6.63;2.92;;;;;;;12.96;100.00;101099.25;5003153;28;20021;-80
2021/08/05 03:32:31;;;;;;;6.13;2.63;;;;;;;12.91;100.00;101096.25;5000615;28;20192;-80
2021/08/05 03:34:57;;;;;;;7.47;3.33;;;;;;;12.96;100.00;101100.09;5014841;28;20520;-81
2021/08/05 03:37:22;;;;;;;9.30;3.00;;;;;;;12.95;100.00;101097.59;4998026;28;20532;-81
2021/08/05 03:39:48;;;;;;;2.55;2.35;;;;;;;12.93;100.00;101094.31;5006213;28;20176;-81
2021/08/05 03:42:13;;;;;;;3.95;2.95;;;;;;;12.79;100.00;101070.19;4989616;28;20096;-82
2021/08/05 03:44:39;;;;;;;4.45;2.78;;;;;;;12.91;100.00;101097.09;5005814;28;20389;-81
2021/08/05 03:47:04;;;;;;;6.80;2.83;;;;;;;12.92;100.00;101090.84;4997852;28;20041;-81
2021/08/05 03:49:30;;;;;;;4.53;2.30;;;;;;;12.99;100.00;101094.50;5014903;28;20069;-81
2021/08/05 03:51:55;;;;;;;4.28;2.40;;;;;;;13.02;100.00;101098.66;4980859;28;20037;-81
2021/08/05 03:54:21;;;;;;;6.13;2.55;;;;;;;12.97;100.00;101091.19;5013885;28;20134;-82
2021/08/05 03:56:46;;;;;;;5.10;2.42;;;;;;;13.01;100.00;101100.44;4981531;28;20038;-80
2021/08/05 03:59:11;;;;;;;4.45;2.20;;;;;;;13.00;100.00;101098.81;4995155;28;20038;-81
2021/08/05 04:01:37;;;;;;;4.43;2.50;;;;;;;12.94;100.00;101088.03;4999406;28;20136;-81
2021/08/05 04:04:03;;;;;;;4.63;2.50;;;;;;;12.97;100.00;101096.47;4996115;28;20038;-81
2021/08/05 04:06:28;;;;;;;5.47;2.55;;;;;;;13.00;100.00;101093.53;4996664;28;20598;-81
2021/08/05 04:08:54;;;;;;;4.93;2.33;;;;;;;13.02;100.00;101090.75;5000873;28;20167;-80
2021/08/05 04:11:19;;;;;;;2.47;2.28;;;;;;;13.02;100.00;101093.38;4985869;28;20042;-81
2021/08/05 04:13:44;;;;;;;2.92;2.42;;;;;;;13.07;100.00;101100.81;4991234;28;20041;-81
2021/08/05 04:16:10;;;;;;;6.30;2.40;;;;;;;12.94;100.00;101090.69;5018103;28;20088;-81
2021/08/05 04:18:36;;;;;;;4.43;2.40;;;;;;;13.05;100.00;101100.97;4997002;28;20044;-82
2021/08/05 04:21:01;;;;;;;2.60;2.30;;;;;;;13.04;100.00;101092.25;5009393;28;20458;-81
2021/08/05 04:23:27;;;;;;;6.38;2.85;;;;;;;13.05;100.00;101093.06;5003631;28;20040;-81
2021/08/05 04:25:52;;;;;;;5.53;2.63;;;;;;;13.11;100.00;101099.50;4996948;28;20046;-81
2021/08/05 04:28:18;;;;;;;3.53;3.00;;;;;;;13.10;100.00;101097.88;4996161;28;20042;-82
2021/08/05 04:30:44;;;;;;;5.32;2.30;;;;;;;13.11;100.00;101097.72;5004639;28;20044;-81
2021/08/05 04:33:09;;;;;;;5.45;2.35;;;;;;;13.10;100.00;101095.25;4997260;28;20038;-82
2021/08/05 04:35:35;;;;;;;6.05;2.83;;;;;;;13.04;100.00;101091.44;5013240;28;20575;-82
2021/08/05 04:38:01;;;;;;;3.60;2.22;;;;;;;13.08;100.00;101091.94;5001127;28;20037;-82
2021/08/05 04:40:29;;;;;;;2.80;2.35;;;;;;;13.18;100.00;101093.47;4983076;28;20046;-80
2021/08/05 04:42:56;;;;;;;7.60;2.78;;;;;;;13.15;100.00;101096.44;4998741;28;20033;-81
2021/08/05 04:45:22;;;;;;;3.45;2.65;;;;;;;13.14;100.00;101091.31;5011980;28;20045;-82
2021/08/05 04:47:57;;;;;;;4.70;2.50;;;;;;;13.14;100.00;101101.84;4993201;28;20046;-81
2021/08/05 04:50:26;;;;;;;7.75;2.42;;;;;;;13.12;100.00;101096.72;5008101;28;20129;-82
2021/08/05 04:52:54;;;;;;;4.95;2.75;;;;;;;13.13;100.00;101095.78;4996358;28;20091;-81
2021/08/05 04:55:20;;;;;;;6.53;2.28;;;;;;;13.15;100.00;101096.44;5012442;28;20025;-82
2021/08/05 04:57:52;;;;;;;2.63;2.38;;;;;;;13.16;100.00;101100.72;5012418;28;20045;-80
2021/08/05 05:00:31;;;;;;;4.83;2.43;;;;;;;13.22;100.00;101097.47;5011373;28;20050;-81
2021/08/05 05:02:57;;;;;;;5.47;2.58;;;;;;;13.12;100.00;101080.94;5020149;28;20034;-82
2021/08/05 05:05:23;;;;;;;4.80;2.33;;;;;;;13.25;100.00;101093.69;5011813;28;20033;-80
2021/08/05 05:07:49;;;;;;;4.75;2.30;;;;;;;13.26;100.00;101090.09;5013049;28;20053;-80
2021/08/05 05:10:16;;;;;;;4.32;2.60;;;;;;;13.24;100.00;101084.13;4984551;28;20034;-80
2021/08/05 05:12:42;;;;;;;3.72;2.35;;;;;;;13.30;100.00;101090.59;5012669;28;20105;-82
2021/08/05 05:15:09;;;;;;;4.25;2.80;;;;;;;13.30;100.00;101082.69;4997160;28;20519;-81
2021/08/05 05:17:35;;;;;;;4.05;2.47;;;;;;;13.39;100.00;101092.31;4995550;28;20069;-80
2021/08/05 05:20:02;;;;;;;2.50;2.20;;;;;;;13.39;100.00;101081.78;4995478;28;20041;-80
2021/08/05 05:22:28;;;;;;;5.95;2.40;;;;;;;13.43;100.00;101077.88;4992194;28;20423;-80
2021/08/05 05:24:53;;;;;;;4.22;2.60;;;;;;;13.51;100.00;101085.00;5010200;28;20038;-81
2021/08/05 05:27:19;;;;;;;3.83;2.40;;;;;;;13.60;100.00;101091.94;5015751;28;20034;-82
2021/08/05 05:29:45;;;;;;;2.60;2.10;;;;;;;13.61;100.00;101089.13;5017562;28;20041;-81
2021/08/05 05:32:10;;;;;;;4.68;2.45;;;;;;;13.67;100.00;101081.59;5012830;28;20049;-80
2021/08/05 05:34:36;;;;;;;5.95;2.58;;;;;;;13.74;100.00;101088.69;4996579;28;20033;-80
2021/08/05 05:37:02;;;;;;;3.72;2.50;;;;;;;13.83;100.00;101093.03;4996132;28;20137;-80
2021/08/05 05:39:28;;;;;;;4.75;2.30;;;;;;;13.77;100.00;101069.13;4982218;28;20392;-80
2021/08/05 05:41:53;;;;;;;3.17;2.55;;;;;;;13.98;100.00;101089.78;5012884;28;20037;-80
2021/08/05 05:44:19;;;;;;;2.65;2.45;;;;;;;14.08;100.00;101092.28;4996643;28;20034;-82
2021/08/05 05:46:45;;;;;;;6.18;2.47;;;;;;;14.13;100.00;101090.00;4995050;28;20113;-79
2021/08/05 05:49:11;;;;;;;5.88;2.70;;;;;;;14.16;100.00;101081.75;4995887;28;20117;-81
2021/08/05 05:51:36;;;;;;;7.05;2.58;;;;;;;14.25;100.00;101082.59;4992330;28;20045;-82
2021/08/05 05:54:02;;;;;;;3.80;2.75;;;;;;;14.26;100.00;101074.53;4992782;28;20515;-82
2021/08/05 05:56:27;;;;;;;4.78;2.70;;;;;;;14.28;100.00;101077.81;5005380;28;20085;-81
2021/08/05 05:58:53;;;;;;;6.97;2.70;;;;;;;14.31;100.00;101071.38;5020281;28;20133;-80
2021/08/05 06:01:18;;;;;;;6.53;2.67;;;;;;;14.38;100.00;101073.19;5012748;28;20029;-82
2021/08/05 06:03:44;;;;;;;7.45;2.78;;;;;;;14.41;100.00;101078.16;4995656;28;20061;-82
2021/08/05 06:06:10;;;;;;;7.45;2.78;;;;;;;14.46;100.00;101082.94;4994788;28;20399;-81
2021/08/05 06:08:35;;;;;;;6.82;3.55;;;;;;;14.38;100.00;101061.81;5012720;28;20037;-81
2021/08/05 06:11:01;;;;;;;3.33;2.30;;;;;;;14.48;100.00;101080.13;5006386;28;20037;-82
2021/08/05 06:13:26;;;;;;;6.57;2.40;;;;;;;14.47;97.41;101073.22;5012805;28;20034;-81
2021/08/05 06:15:52;;;;;;;5.15;2.38;;;;;;;14.57;100.00;101076.53;5008274;28;20559;-81
2021/08/05 06:18:17;;;;;;;2.90;2.58;;;;;;;14.74;100.00;101082.66;4995500;28;20044;-80
2021/08/05 06:20:43;;;;;;;3.45;2.40;;;;;;;14.67;100.00;101079.84;5021309;28;20037;-82
2021/08/05 06:23:09;;;;;;;4.68;2.40;;;;;;;14.87;97.38;101077.69;4999353;28;20209;-80
2021/08/05 06:25:36;;;;;;;4.40;2.45;;;;;;;14.92;95.66;101085.94;5016210;28;20033;-80
2021/08/05 06:28:03;;;;;;;4.53;2.60;;;;;;;15.03;92.82;101082.16;5015969;28;20042;-80
2021/08/05 06:30:29;;;;;;;6.10;2.42;;;;;;;15.08;93.19;101092.19;5003845;28;20571;-80
2021/08/05 06:32:55;;;;;;;5.63;2.15;;;;;;;15.10;94.41;101088.38;5015028;28;20077;-79
2021/08/05 06:35:20;;;;;;;4.80;2.33;;;;;;;15.13;91.30;101081.97;5015514;28;20122;-80
2021/08/05 06:37:46;;;;;;;3.08;2.38;;;;;;;15.25;90.57;101091.16;4999350;28;20037;-81
2021/08/05 06:40:12;;;;;;;4.18;2.30;;;;;;;15.30;91.32;101093.31;5006126;28;20072;-82
2021/08/05 06:42:37;;;;;;;3.92;2.13;;;;;;;15.32;89.28;101091.34;5004251;28;20585;-80
2021/08/05 06:45:09;;;;;;;4.43;2.58;;;;;;;15.31;90.88;101079.09;4996910;28;20041;-80
2021/08/05 06:47:38;;;;;;;4.33;2.53;;;;;;;15.36;90.37;101093.47;5006123;28;20674;-78
2021/08/05 06:50:04;;;;;;;3.03;1.95;;;;;;;15.42;88.90;101091.94;5012728;28;20040;-80
2021/08/05 06:52:30;;;;;;;7.75;2.55;;;;;;;15.45;87.23;101088.97;4994612;28;20033;-80
2021/08/05 06:54:55;;;;;;;3.22;2.15;;;;;;;15.42;87.76;101086.66;5012777;28;20038;-79
2021/08/05 06:57:21;;;;;;;2.40;2.20;;;;;;;15.46;88.72;101093.25;5013849;28;20103;-79
2021/08/05 06:59:46;;;;;;;4.30;2.55;;;;;;;15.48;89.02;101091.28;5017147;28;20144;-80
2021/08/05 07:02:12;;;;;;;2.90;2.30;;;;;;;15.54;88.09;101093.25;4995201;28;20033;-81
2021/08/05 07:04:37;;;;;;;2.65;2.17;;;;;;;15.56;87.50;101091.25;5013012;28;20038;-80
2021/08/05 07:07:03;;;;;;;3.60;2.00;;;;;;;15.61;89.37;101085.44;4995931;28;20397;-80
2021/08/05 07:09:28;;;;;;;2.40;2.03;;;;;;;15.55;89.97;101091.44;4999165;28;20038;-80
2021/08/05 07:11:54;;;;;;;4.93;2.38;;;;;;;15.57;85.32;101090.25;4979681;28;20040;-81
2021/08/05 07:14:19;;;;;;;4.78;2.55;;;;;;;15.57;86.23;101084.97;4995250;28;20480;-80
2021/08/05 07:16:45;;;;;;;4.20;2.28;;;;;;;15.53;86.87;101078.38;4995690;28;20125;-79
2021/08/05 07:19:10;;;;;;;2.85;2.20;;;;;;;15.54;88.91;101084.50;5011099;28;20044;-78
2021/08/05 07:21:36;;;;;;;2.55;1.77;;;;;;;15.53;89.31;101074.91;5012646;28;20544;-79
2021/08/05 07:24:01;;;;;;;3.70;2.40;;;;;;;15.69;88.44;101082.78;4995020;28;20034;-80
2021/08/05 07:26:27;;;;;;;4.10;2.45;;;;;;;16.14;86.68;101088.34;5011608;28;20323;-79
2021/08/05 07:28:52;;;;;;;5.30;2.30;;;;;;;16.84;84.86;101089.19;5003432;28;20040;-80
2021/08/05 07:31:19;;;;;;;6.57;1.95;;;;;;;17.39;81.35;101097.78;4985640;28;20121;-80
2021/08/05 07:33:47;;;;;;;3.30;2.45;;;;;;;17.80;79.05;101098.13;4979427;28;20180;-78
2021/08/05 07:36:13;;;;;;;4.45;2.13;;;;;;;18.12;78.31;101100.53;4997413;28;20030;-79
2021/08/05 07:38:39;;;;;;;3.58;1.90;;;;;;;18.24;77.15;101089.25;5011123;28;20408;-81
2021/08/05 07:41:04;;;;;;;7.45;2.00;;;;;;;18.34;74.26;101096.91;4976333;28;20035;-82
2021/08/05 07:43:30;;;;;;;3.10;2.20;;;;;;;18.37;74.22;101103.69;4995694;28;20034;-80
2021/08/05 07:45:55;;;;;;;3.70;2.00;;;;;;;18.39;75.79;101106.97;4981374;28;20137;-81
2021/08/05 07:48:21;;;;;;;2.67;2.30;;;;;;;18.34;73.51;101110.19;4997073;28;20519;-80
2021/08/05 07:50:46;;;;;;;2.53;2.30;;;;;;;18.13;75.09;101099.53;4990742;28;20119;-81
2021/08/05 07:53:12;;;;;;;3.03;2.05;;;;;;;18.11;75.37;101101.56;4997261;28;20042;-80
2021/08/05 07:55:37;;;;;;;2.40;2.10;;;;;;;18.01;77.85;101097.38;5013508;28;20097;-79
2021/08/05 07:58:03;;;;;;;3.60;1.88;;;;;;;18.07;76.62;101095.81;5011865;28;20044;-78
2021/08/05 08:00:28;;;;;;;5.65;2.40;;;;;;;18.10;77.36;101098.06;4977570;28;20038;-81
2021/08/05 08:02:54;;;;;;;3.20;2.30;;;;;;;18.08;76.80;101092.13;5003178;28;20333;-79
2021/08/05 08:05:19;;;;;;;5.10;2.15;;;;;;;18.14;78.32;101087.91;4995297;28;20029;-81
2021/08/05 08:07:45;;;;;;;3.75;2.33;;;;;;;18.18;76.88;101081.22;5011118;28;20033;-80
2021/08/05 08:10:13;;;;;;;4.90;2.10;;;;;;;18.28;76.86;101090.50;4986063;28;20387;-82
2021/08/05 08:12:39;;;;;;;5.05;2.70;;;;;;;18.15;78.41;101095.69;4988799;28;20042;-81
2021/08/05 08:15:05;;;;;;;4.50;2.70;;;;;;;18.04;77.63;101083.72;5012797;28;20040;-81
2021/08/05 08:17:31;;;;;;;3.05;2.38;;;;;;;18.01;80.13;101089.41;4997217;28;20040;-81
2021/08/05 08:19:56;;;;;;;3.40;2.22;;;;;;;17.96;79.89;101094.47;5008164;28;20033;-78
2021/08/05 08:22:22;;;;;;;2.88;2.25;;;;;;;17.99;84.14;101085.28;5025413;28;20510;-81
2021/08/05 08:24:47;;;;;;;2.35;2.00;;;;;;;17.97;79.95;101080.19;5011199;28;20061;-81
2021/08/05 08:27:13;;;;;;;3.70;2.10;;;;;;;18.00;79.00;101086.94;4983041;28;20058;-80
2021/08/05 08:29:38;;;;;;;3.28;2.80;;;;;;;18.06;78.43;101078.22;4987645;28;20038;-81
2021/08/05 08:32:04;;;;;;;3.75;2.47;;;;;;;18.19;78.62;101088.16;5013306;28;20404;-80
2021/08/05 08:34:29;;;;;;;2.78;2.25;;;;;;;18.22;76.49;101077.19;5003135;28;20677;-81
2021/08/05 08:36:55;;;;;;;3.13;2.05;;;;;;;18.35;75.97;101076.50;5008309;28;20033;-80
2021/08/05 08:39:23;;;;;;;4.00;2.17;;;;;;;18.39;76.29;101065.28;4999608;28;20403;-81
2021/08/05 08:41:49;;;;;;;3.17;2.20;;;;;;;18.65;77.18;101072.69;5024212;28;20072;-81
2021/08/05 08:44:15;;;;;;;4.65;2.97;;;;;;;18.96;76.36;101068.03;5001455;28;20045;-80
2021/08/05 08:46:43;;;;;;;2.65;2.25;;;;;;;19.19;72.84;101067.75;4996700;28;20128;-80
2021/08/05 08:49:10;;;;;;;3.40;2.20;;;;;;;19.57;71.62;101073.50;5001652;28;20044;-81
2021/08/05 08:51:36;;;;;;;4.57;2.15;;;;;;;19.86;72.12;101068.13;4994432;28;20037;-81
2021/08/05 08:54:07;;;;;;;3.22;2.50;;;;;;;20.02;68.57;101073.06;4980160;28;20034;-83
2021/08/05 08:56:33;;;;;;;3.92;2.38;;;;;;;19.93;68.70;101072.44;5004527;28;20113;-80
2021/08/05 08:58:59;;;;;;;3.53;2.30;;;;;;;20.06;69.47;101070.81;4997631;28;20510;-80
2021/08/05 09:01:26;;;;;;;3.35;2.42;;;;;;;20.17;70.77;101071.06;5012842;28;20033;-83
2021/08/05 09:03:51;;;;;;;4.65;2.30;;;;;;;20.27;67.87;101069.84;5023588;28;20037;-82
2021/08/05 09:06:17;;;;;;;4.00;2.30;;;;;;;20.28;69.18;101076.81;5002376;28;20037;-80
2021/08/05 09:08:42;;;;;;;5.25;2.63;;;;;;;20.43;72.51;101069.44;4991651;28;20655;-81
2021/08/05 09:11:08;;;;;;;5.20;2.50;;;;;;;20.54;68.04;101062.69;5011341;28;20049;-80
2021/08/05 09:13:35;;;;;;;7.47;2.55;;;;;;;20.53;70.29;101064.56;4986792;28;20040;-80
2021/08/05 09:16:00;;;;;;;3.25;2.20;;;;;;;20.47;69.20;101061.88;5006035;28;20115;-79
2021/08/05 09:18:38;;;;;;;2.88;2.20;;;;;;;20.32;70.43;101064.72;5006170;28;20117;-80
2021/08/05 09:21:23;;;;;;;2.78;2.40;;;;;;;20.29;69.34;101060.63;5015360;28;20512;-82
2021/08/05 09:23:50;;;;;;;5.63;2.33;;;;;;;20.67;69.39;101059.25;4999897;28;20043;-79
2021/08/05 09:26:41;;;;;;;3.17;2.13;;;;;;;20.92;67.47;101059.44;5016981;28;20123;-80
2021/08/05 09:29:24;;;;;;;4.43;2.40;;;;;;;21.37;69.55;101060.34;5021870;28;20040;-80
2021/08/05 09:31:49;;;;;;;2.15;1.92;;;;;;;21.59;68.39;101060.09;4992713;28;20042;-80
2021/08/05 09:34:19;;;;;;;2.45;2.10;;;;;;;21.70;63.23;101054.09;5030932;28;20108;-80
2021/08/05 09:36:46;;;;;;;4.63;2.67;;;;;;;21.89;64.67;101049.69;5011855;28;20048;-80
2021/08/05 09:39:28;;;;;;;5.90;2.70;;;;;;;21.78;64.75;101059.19;4996459;28;20042;-80
2021/08/05 09:41:56;;;;;;;3.85;2.30;;;;;;;22.06;65.37;101052.69;4984696;28;20049;-80
2021/08/05 09:44:22;;;;;;;3.95;2.17;;;;;;;22.28;65.46;101047.00;5015104;28;20053;-79
2021/08/05 09:47:00;;;;;;;3.35;2.17;;;;;;;22.39;63.34;101053.50;4996564;28;20112;-81
2021/08/05 09:49:28;;;;;;;3.10;2.20;;;;;;;22.25;62.97;101045.59;5016877;28;20041;-80
2021/08/05 09:51:58;;;;;;;4.72;2.17;;;;;;;22.33;64.42;101042.63;5010786;28;20064;-80
2021/08/05 09:54:36;;;;;;;2.15;1.90;;;;;;;22.13;62.41;101042.78;5012568;28;20040;-80
2021/08/05 09:57:02;;;;;;;4.28;2.05;;;;;;;21.99;60.60;101035.06;5012315;28;20062;-80
2021/08/05 09:59:28;;;;;;;3.00;2.28;;;;;;;22.23;61.18;101036.94;5012115;28;20076;-82
2021/08/05 10:02:00;;;;;;;5.32;2.03;;;;;;;22.19;61.67;101022.38;4993566;28;20511;-82
2021/08/05 10:04:30;;;;;;;;;;;;;;;22.17;60.47;101022.59;4993304;28;20034;-81
2021/08/05 10:07:00;;;;;;;3.95;2.00;;;;;;;22.37;64.01;101013.63;4978458;28;20276;-82
2021/08/05 10:09:28;;;;;;;2.40;1.98;;;;;;;22.64;63.89;101002.69;5008825;28;20041;-84
2021/08/05 10:12:08;;;;;;;2.67;2.00;;;;;;;22.75;63.25;100993.94;5014094;28;20041;-82
2021/08/05 10:14:33;;;;;;;4.97;2.00;;;;;;;22.99;56.47;101002.16;4993592;28;20124;-80
2021/08/05 10:16:59;;;;;;;3.65;2.13;;;;;;;23.05;56.70;101002.09;4999498;28;20116;-81
2021/08/05 10:19:28;;;;;;;2.30;1.80;;;;;;;23.08;55.82;101004.34;5026470;28;20034;-81
2021/08/05 10:21:54;;;;;;;3.40;2.00;;;;;;;22.93;57.47;101003.88;5012928;28;20038;-81
2021/08/05 10:24:21;;;;;;;6.50;2.13;;;;;;;22.87;56.07;100992.19;5006315;28;20416;-82
2021/08/05 10:26:47;;;;;;;7.38;2.25;;;;;;;23.01;57.19;100998.22;4992862;28;20450;-82
2021/08/05 10:29:15;;;;;;;5.78;2.08;;;;;;;23.30;56.85;100987.81;5009634;28;20120;-81
2021/08/05 10:31:42;;;;;;;1.98;1.80;;;;;;;23.52;55.97;100991.63;4994422;28;20105;-82
2021/08/05 10:34:11;;;;;;;3.35;2.22;;;;;;;23.58;53.59;100981.88;4998402;28;20129;-82
2021/08/05 10:36:37;;;;;;;2.95;1.70;;;;;;;23.68;56.26;100984.84;4975652;28;20120;-82
2021/08/05 10:39:02;;;;;;;3.15;2.00;;;;;;;23.70;54.00;100982.75;5010504;28;20069;-83
2021/08/05 10:41:31;;;;;;;3.25;2.05;;;;;;;23.87;54.67;100984.81;4991125;28;20042;-82
2021/08/05 10:43:59;;;;;;;3.05;2.00;;;;;;;23.99;55.23;100979.47;4993608;28;20042;-84
2021/08/05 10:46:31;;;;;;;2.38;1.80;;;;;;;23.59;54.69;100972.81;5018644;28;20069;-84
2021/08/05 10:48:57;;;;;;;3.53;1.75;;;;;;;23.19;59.04;100977.84;5010420;28;20148;-85
2021/08/05 10:51:22;;;;;;;8.60;2.78;;;;;;;23.74;56.42;100971.59;5002371;28;20076;-81
2021/08/05 10:53:48;;;;;;;2.03;1.70;;;;;;;23.70;55.00;100969.38;5026068;28;20097;-82
2021/08/05 10:56:25;;;;;;;2.80;1.83;;;;;;;23.84;53.78;100961.16;5010950;28;20037;-80
2021/08/05 10:59:10;;;;;;;2.42;1.73;;;;;;;24.37;53.20;100967.53;4993150;28;20758;-82
2021/08/05 11:01:52;;;;;;;4.93;1.85;;;;;;;23.86;53.04;100964.44;5010468;28;20038;-81
2021/08/05 11:04:34;;;;;;;2.88;1.77;;;;;;;23.83;52.87;100959.53;5011047;28;20718;-81
2021/08/05 11:07:22;;;;;;;4.38;2.03;;;;;;;23.17;54.07;100954.03;5016526;28;20545;-81
2021/08/05 11:09:49;;;;;;;1.90;1.80;;;;;;;22.86;55.04;100942.41;4960092;28;20035;-80
2021/08/05 11:12:38;;;;;;;3.13;2.00;;;;;;;23.25;57.95;100940.34;4999506;28;20047;-80
2021/08/05 11:15:29;;;;;;;2.92;1.83;;;;;;;23.85;52.98;100941.38;4980004;28;20056;-81
2021/08/05 11:18:10;;;;;;;3.72;1.88;;;;;;;24.44;53.14;100946.78;5012535;28;20149;-80
2021/08/05 11:20:41;;;;;;;4.53;1.92;;;;;;;24.24;50.49;100942.59;4976945;28;20197;-82